Time;durP1;ratioP1;P1;durP2;ratioP2;P2;SDS_P1;SDS_P2;PMS_P1;PMS_P2;Temp;Humidity;BMP_temperature;BMP_pressure;BME280_temperature;BME280_humidity;BME280_pressure;Samples;Min_cycle;Max_cycle;Signal;HPM_P1;HPM_P2
2023/04/28 00:02:55;;;;;;;10.30;9.07;;;5.50;59.50;;;;;;6264950;28;20280;-84
2023/04/28 00:05:58;;;;;;;11.30;8.87;;;5.50;59.80;;;;;;6265399;28;20234;-85
2023/04/28 00:09:02;;;;;;;9.77;8.93;;;5.40;59.80;;;;;;6254747;28;20244;-82
2023/04/28 00:12:05;;;;;;;9.20;8.27;;;5.30;59.80;;;;;;6264718;28;20480;-84
2023/04/28 00:15:12;;;;;;;10.30;9.27;;;5.30;59.80;;;;;;6266084;28;20230;-85
2023/04/28 00:18:15;;;;;;;11.00;9.90;;;5.30;59.80;;;;;;6256567;28;20586;-85
2023/04/28 00:21:18;;;;;;;10.93;9.83;;;5.30;60.00;;;;;;6260084;28;20446;-83
2023/04/28 00:24:21;;;;;;;10.80;9.80;;;5.30;60.30;;;;;;6263367;28;20714;-84
2023/04/28 00:27:25;;;;;;;10.37;9.20;;;5.20;60.40;;;;;;6241457;28;20309;-84
2023/04/28 00:30:30;;;;;;;9.93;8.93;;;5.20;60.50;;;;;;6238083;28;20322;-84
2023/04/28 00:33:33;;;;;;;9.87;8.80;;;5.20;60.70;;;;;;6250663;28;20245;-82
2023/04/28 00:36:36;;;;;;;10.70;9.70;;;5.10;60.70;;;;;;6271569;28;20298;-83
2023/04/28 00:39:40;;;;;;;14.40;9.83;;;5.10;60.70;;;;;;6260833;28;20331;-83
2023/04/28 00:42:43;;;;;;;9.80;8.90;;;5.10;60.50;;;;;;6258030;28;20237;-82
2023/04/28 00:45:49;;;;;;;9.77;8.97;;;5.10;60.40;;;;;;6249616;28;20612;-85
2023/04/28 00:48:52;;;;;;;9.53;8.70;;;5.00;60.30;;;;;;6240681;28;20231;-84
2023/04/28 00:51:55;;;;;;;9.00;8.23;;;5.00;60.20;;;;;;6237254;28;20244;-86
2023/04/28 00:54:58;;;;;;;9.60;8.73;;;5.00;60.30;;;;;;6240937;28;20231;-84
2023/04/28 00:58:05;;;;;;;8.70;8.00;;;5.00;60.30;;;;;;6235149;28;20245;-84
2023/04/28 01:01:11;;;;;;;9.40;7.97;;;5.00;60.20;;;;;;6232867;28;20234;-84
2023/04/28 01:04:14;;;;;;;9.30;8.40;;;5.00;60.20;;;;;;6235213;28;20621;-83
2023/04/28 01:07:18;;;;;;;9.13;8.33;;;5.00;60.20;;;;;;6239646;28;20313;-84
2023/04/28 01:10:21;;;;;;;8.97;8.27;;;5.00;60.30;;;;;;6235235;28;20335;-85
2023/04/28 01:13:25;;;;;;;8.20;7.60;;;5.00;60.30;;;;;;6239040;28;20488;-84
2023/04/28 01:16:31;;;;;;;9.17;8.43;;;5.00;60.30;;;;;;6239159;28;20629;-83
2023/04/28 01:19:34;;;;;;;7.80;7.20;;;5.00;60.30;;;;;;6269891;28;20215;-82
2023/04/28 01:22:37;;;;;;;8.00;7.40;;;5.00;60.50;;;;;;6269439;28;20256;-83
2023/04/28 01:25:43;;;;;;;8.53;7.80;;;5.00;60.70;;;;;;6281611;28;20232;-82
2023/04/28 01:28:46;;;;;;;9.40;8.17;;;5.00;60.90;;;;;;6275758;28;20227;-81
2023/04/28 01:31:49;;;;;;;8.13;7.53;;;4.90;61.00;;;;;;6276112;28;20226;-82
2023/04/28 01:34:52;;;;;;;8.03;7.43;;;4.90;61.20;;;;;;6285323;28;20233;-81
2023/04/28 01:37:55;;;;;;;8.20;7.50;;;4.90;61.40;;;;;;6270065;28;20249;-83
2023/04/28 01:41:01;;;;;;;7.73;7.10;;;4.90;61.50;;;;;;6267590;28;20230;-83
2023/04/28 01:44:06;;;;;;;8.03;7.53;;;5.00;61.60;;;;;;6235778;28;20361;-84
2023/04/28 01:47:09;;;;;;;8.27;7.77;;;5.00;61.60;;;;;;6235669;28;20547;-82
2023/04/28 01:50:13;;;;;;;7.23;6.73;;;4.90;61.70;;;;;;6231690;28;20231;-84
2023/04/28 01:53:19;;;;;;;7.70;7.07;;;4.90;61.80;;;;;;6241008;28;20288;-82
2023/04/28 01:56:23;;;;;;;7.30;6.70;;;4.90;62.00;;;;;;6248059;28;20308;-82
2023/04/28 01:59:26;;;;;;;7.10;6.70;;;4.90;62.10;;;;;;6260685;28;20248;-84
2023/04/28 02:02:31;;;;;;;7.30;6.80;;;4.80;62.10;;;;;;6249182;28;20252;-83
2023/04/28 02:05:34;;;;;;;8.20;7.40;;;4.80;62.20;;;;;;6245133;28;20269;-85
2023/04/28 02:08:37;;;;;;;6.87;6.30;;;4.80;62.20;;;;;;6258278;28;20242;-83
2023/04/28 02:11:41;;;;;;;7.27;6.70;;;4.80;62.20;;;;;;6280695;28;20238;-82
2023/04/28 02:14:45;;;;;;;7.17;6.57;;;4.80;62.30;;;;;;6278808;28;20278;-81
2023/04/28 02:17:48;;;;;;;7.67;6.97;;;4.80;62.40;;;;;;6279344;28;20244;-81
2023/04/28 02:20:51;;;;;;;9.97;7.30;;;4.70;62.50;;;;;;6275173;28;20226;-85
2023/04/28 02:23:54;;;;;;;7.77;7.13;;;4.80;62.70;;;;;;6274304;28;20286;-81
2023/04/28 02:26:59;;;;;;;9.00;7.03;;;4.80;62.80;;;;;;6293258;28;20396;-80
2023/04/28 02:30:02;;;;;;;8.07;7.33;;;4.70;63.00;;;;;;6276422;28;20245;-83
2023/04/28 02:33:05;;;;;;;7.37;6.90;;;4.70;63.00;;;;;;6260841;28;20245;-83
2023/04/28 02:36:09;;;;;;;7.30;6.70;;;4.70;63.00;;;;;;6247290;28;20240;-85
2023/04/28 02:39:12;;;;;;;10.00;7.57;;;4.70;63.30;;;;;;6262820;28;20253;-83
2023/04/28 02:42:17;;;;;;;7.20;6.70;;;4.80;63.10;;;;;;6232693;28;20238;-82
2023/04/28 02:45:20;;;;;;;7.00;6.50;;;4.90;63.00;;;;;;6238417;28;20242;-82
2023/04/28 02:48:23;;;;;;;7.83;7.03;;;4.80;62.90;;;;;;6236003;28;20242;-80
2023/04/28 02:51:27;;;;;;;6.97;6.37;;;4.80;62.90;;;;;;6239302;28;20733;-84
2023/04/28 02:54:34;;;;;;;7.37;6.77;;;4.80;63.00;;;;;;6237986;28;20244;-83
2023/04/28 02:57:38;;;;;;;7.20;6.60;;;4.70;63.20;;;;;;6233588;28;20253;-83
2023/04/28 03:00:41;;;;;;;6.17;5.80;;;4.70;63.00;;;;;;6261969;28;20244;-82
2023/04/28 03:03:44;;;;;;;6.90;6.27;;;4.70;63.00;;;;;;6263995;28;20294;-84
2023/04/28 03:06:48;;;;;;;7.00;6.60;;;4.70;63.10;;;;;;6261994;28;20223;-81
2023/04/28 03:09:51;;;;;;;7.20;6.57;;;4.80;63.10;;;;;;6266345;28;20222;-83
2023/04/28 03:12:55;;;;;;;8.23;6.53;;;4.80;63.00;;;;;;6240616;28;20238;-83
2023/04/28 03:15:58;;;;;;;7.30;6.70;;;4.80;63.00;;;;;;6236729;28;20691;-84
2023/04/28 03:19:02;;;;;;;7.13;6.30;;;4.90;62.90;;;;;;6238848;28;20701;-84
2023/04/28 03:22:06;;;;;;;7.70;7.00;;;4.80;62.80;;;;;;6254515;28;20244;-83
2023/04/28 03:25:10;;;;;;;7.80;7.03;;;4.80;62.80;;;;;;6237457;28;20238;-83
2023/04/28 03:28:15;;;;;;;7.17;6.57;;;4.80;62.80;;;;;;6234297;28;20233;-82
2023/04/28 03:31:18;;;;;;;6.63;6.20;;;4.70;62.70;;;;;;6229714;28;20361;-79
2023/04/28 03:34:21;;;;;;;7.00;6.50;;;4.70;62.60;;;;;;6232195;28;20771;-78
2023/04/28 03:37:24;;;;;;;6.67;6.17;;;4.70;62.50;;;;;;6248363;28;20242;-79
2023/04/28 03:40:27;;;;;;;6.10;5.70;;;4.80;62.40;;;;;;6233212;28;20661;-79
2023/04/28 03:43:34;;;;;;;6.40;5.77;;;4.70;62.40;;;;;;6238580;28;20245;-78
2023/04/28 03:46:37;;;;;;;6.40;5.90;;;4.70;62.30;;;;;;6238184;28;20237;-77
2023/04/28 03:49:40;;;;;;;6.20;5.90;;;4.70;62.30;;;;;;6236337;28;20729;-79
2023/04/28 03:52:43;;;;;;;6.37;5.87;;;4.80;62.30;;;;;;6234140;28;20250;-79
2023/04/28 03:55:48;;;;;;;6.57;5.97;;;4.80;62.30;;;;;;6239128;28;20231;-77
2023/04/28 03:58:52;;;;;;;5.80;5.40;;;4.80;62.30;;;;;;6251965;28;20238;-79
2023/04/28 04:01:55;;;;;;;6.10;5.60;;;4.80;62.30;;;;;;6255427;28;20245;-77
2023/04/28 04:04:58;;;;;;;5.87;5.57;;;4.90;62.20;;;;;;6240020;28;20229;-77
2023/04/28 04:08:02;;;;;;;6.93;6.20;;;5.00;62.20;;;;;;6239328;28;20235;-77
2023/04/28 04:11:05;;;;;;;6.70;6.20;;;5.00;62.10;;;;;;6243770;28;20750;-78
2023/04/28 04:14:10;;;;;;;8.27;5.80;;;5.00;62.10;;;;;;6249000;28;20409;-77
2023/04/28 04:17:13;;;;;;;6.23;5.77;;;5.00;62.10;;;;;;6231076;28;20714;-78
2023/04/28 04:20:16;;;;;;;6.77;6.27;;;5.10;62.10;;;;;;6245060;28;20237;-77
2023/04/28 04:23:19;;;;;;;6.20;5.80;;;5.10;61.80;;;;;;6240485;28;20238;-78
2023/04/28 04:26:22;;;;;;;6.03;5.67;;;5.20;61.80;;;;;;6245077;28;20273;-79
2023/04/28 04:29:27;;;;;;;7.13;6.53;;;5.30;61.90;;;;;;6231086;28;20570;-80
2023/04/28 04:32:30;;;;;;;7.57;6.87;;;5.30;61.60;;;;;;6230500;28;20226;-79
2023/04/28 04:35:33;;;;;;;6.30;5.97;;;5.30;61.70;;;;;;6238956;28;20238;-78
2023/04/28 04:38:36;;;;;;;7.13;6.50;;;5.30;61.60;;;;;;6242227;28;20222;-78
2023/04/28 04:41:40;;;;;;;10.10;6.50;;;5.30;61.50;;;;;;6245116;28;20260;-79
2023/04/28 04:44:44;;;;;;;7.27;6.73;;;5.30;61.50;;;;;;6242621;28;20237;-78
2023/04/28 04:47:47;;;;;;;6.17;5.77;;;5.50;61.20;;;;;;6245534;28;20380;-76
2023/04/28 04:50:50;;;;;;;6.77;6.27;;;5.50;61.00;;;;;;6248498;28;20230;-80
2023/04/28 04:53:55;;;;;;;6.33;5.83;;;5.50;61.10;;;;;;6261624;28;20236;-79
2023/04/28 04:56:58;;;;;;;6.60;6.07;;;5.50;61.20;;;;;;6258635;28;20340;-79
2023/04/28 05:00:03;;;;;;;7.50;6.57;;;5.60;61.10;;;;;;6254424;28;20233;-77
2023/04/28 05:03:07;;;;;;;6.73;6.10;;;5.60;60.70;;;;;;6255300;28;20243;-78
2023/04/28 05:06:11;;;;;;;6.23;5.73;;;5.70;60.70;;;;;;6256873;28;20238;-78
2023/04/28 05:09:14;;;;;;;7.27;6.63;;;5.70;60.70;;;;;;6255978;28;20233;-78
2023/04/28 05:12:17;;;;;;;7.20;6.57;;;5.80;60.50;;;;;;6262437;28;20237;-79
2023/04/28 05:15:21;;;;;;;6.57;6.17;;;5.90;60.50;;;;;;6260829;28;20720;-76
2023/04/28 05:18:24;;;;;;;8.67;7.23;;;6.00;60.20;;;;;;6268139;28;20355;-79
2023/04/28 05:21:27;;;;;;;8.57;7.63;;;6.20;60.10;;;;;;6244846;28;20563;-79
2023/04/28 05:24:31;;;;;;;7.93;7.13;;;6.30;60.00;;;;;;6256076;28;20233;-79
2023/04/28 05:27:36;;;;;;;6.60;6.03;;;6.40;59.50;;;;;;6263368;28;20233;-79
2023/04/28 05:30:42;;;;;;;6.23;5.73;;;6.50;59.30;;;;;;6261054;28;20388;-79
2023/04/28 05:33:45;;;;;;;7.23;6.13;;;6.70;58.50;;;;;;6260170;28;20234;-78
2023/04/28 05:36:48;;;;;;;6.57;5.97;;;6.80;58.40;;;;;;6250507;28;20270;-80
2023/04/28 05:39:51;;;;;;;6.27;5.87;;;7.00;57.90;;;;;;6243924;28;20713;-77
2023/04/28 05:42:54;;;;;;;6.33;5.73;;;7.20;58.00;;;;;;6260203;28;20275;-76
2023/04/28 05:45:59;;;;;;;6.17;5.60;;;7.50;58.00;;;;;;6265282;28;20234;-77
2023/04/28 05:49:02;;;;;;;6.97;6.37;;;7.70;57.50;;;;;;6263227;28;20485;-76
2023/04/28 05:52:05;;;;;;;5.80;5.50;;;8.00;56.60;;;;;;6254728;28;20238;-77
2023/04/28 05:55:09;;;;;;;7.10;6.53;;;8.30;56.00;;;;;;6251744;28;20649;-77
2023/04/28 05:58:12;;;;;;;6.70;6.20;;;8.60;55.60;;;;;;6259603;28;20244;-79
2023/04/28 06:01:17;;;;;;;6.93;6.30;;;8.70;54.50;;;;;;6257081;28;20256;-78
2023/04/28 06:04:20;;;;;;;8.07;6.40;;;8.90;54.40;;;;;;6262724;28;20874;-79
2023/04/28 06:07:24;;;;;;;6.97;6.13;;;9.00;54.10;;;;;;6258955;28;20261;-78
2023/04/28 06:10:29;;;;;;;6.83;6.33;;;9.20;53.60;;;;;;6252254;28;20780;-77
2023/04/28 06:13:32;;;;;;;9.97;6.73;;;9.20;53.70;;;;;;6257054;28;20859;-78
2023/04/28 06:16:36;;;;;;;7.40;6.70;;;9.40;53.70;;;;;;6229412;28;20241;-80
2023/04/28 06:19:39;;;;;;;7.70;6.90;;;9.60;52.50;;;;;;6240247;28;20234;-80
2023/04/28 06:22:43;;;;;;;11.03;6.47;;;9.60;52.50;;;;;;6229052;28;20234;-77
2023/04/28 06:25:46;;;;;;;6.77;6.20;;;9.80;52.60;;;;;;6246136;28;20238;-77
2023/04/28 06:28:49;;;;;;;8.13;6.90;;;10.10;52.70;;;;;;6253507;28;20245;-77
2023/04/28 06:31:56;;;;;;;6.83;6.30;;;10.40;52.50;;;;;;6266092;28;20245;-79
2023/04/28 06:34:59;;;;;;;6.73;6.20;;;10.80;51.40;;;;;;6249306;28;20245;-79
2023/04/28 06:38:03;;;;;;;7.33;6.63;;;11.10;51.00;;;;;;6251477;28;20237;-79
2023/04/28 06:41:06;;;;;;;7.17;6.40;;;11.10;50.60;;;;;;6260063;28;20230;-79
2023/04/28 06:44:11;;;;;;;6.50;6.00;;;11.40;50.30;;;;;;6273844;28;20225;-77
2023/04/28 06:47:15;;;;;;;6.63;6.03;;;11.60;49.80;;;;;;6266110;28;20246;-78
2023/04/28 06:50:18;;;;;;;8.97;6.07;;;11.70;49.70;;;;;;6266423;28;20632;-78
2023/04/28 06:53:21;;;;;;;6.13;5.73;;;12.00;49.70;;;;;;6261612;28;20756;-78
2023/04/28 06:56:25;;;;;;;8.97;6.00;;;12.10;49.00;;;;;;6253742;28;20789;-77
2023/04/28 06:59:28;;;;;;;5.70;5.30;;;12.10;49.80;;;;;;6259526;28;20398;-78
2023/04/28 07:02:33;;;;;;;6.07;5.73;;;12.00;49.30;;;;;;6255706;28;20240;-77
2023/04/28 07:05:37;;;;;;;5.53;5.03;;;11.90;48.90;;;;;;6253185;28;20261;-79
2023/04/28 07:08:41;;;;;;;7.70;5.53;;;11.90;48.80;;;;;;6258789;28;20217;-77
2023/04/28 07:11:44;;;;;;;5.37;5.00;;;11.90;49.10;;;;;;6248126;28;20238;-80
2023/04/28 07:14:49;;;;;;;5.70;5.10;;;11.90;47.80;;;;;;6261861;28;20230;-78
2023/04/28 07:17:53;;;;;;;6.13;4.50;;;11.90;47.70;;;;;;6254358;28;20846;-76
2023/04/28 07:20:56;;;;;;;8.83;4.80;;;12.10;46.90;;;;;;6258104;28;20252;-77
2023/04/28 07:24:01;;;;;;;5.77;4.70;;;12.30;47.80;;;;;;6260787;28;20620;-79
2023/04/28 07:27:04;;;;;;;5.47;5.03;;;12.50;47.20;;;;;;6256341;28;20249;-80
2023/04/28 07:30:08;;;;;;;6.60;5.30;;;12.50;46.90;;;;;;6249261;28;20573;-78
2023/04/28 07:33:31;;;;;;;7.60;5.60;;;12.50;46.70;;;;;;6248071;28;20234;-79
2023/04/28 07:36:35;;;;;;;7.57;6.10;;;12.40;46.00;;;;;;6242800;28;20238;-77
2023/04/28 07:39:39;;;;;;;7.67;5.27;;;12.30;47.60;;;;;;6242996;28;20226;-78
2023/04/28 07:42:44;;;;;;;8.40;4.90;;;12.40;47.30;;;;;;6250875;28;20237;-77
2023/04/28 07:45:48;;;;;;;6.87;5.23;;;12.50;47.10;;;;;;6235072;28;20586;-78
2023/04/28 07:48:52;;;;;;;7.23;5.77;;;12.70;47.30;;;;;;6233577;28;20669;-80
2023/04/28 07:51:55;;;;;;;6.53;5.07;;;12.70;46.60;;;;;;6252909;28;20236;-79
2023/04/28 07:54:59;;;;;;;11.47;6.27;;;12.80;46.90;;;;;;6276421;28;20229;-79
2023/04/28 07:58:02;;;;;;;5.57;5.10;;;12.60;47.10;;;;;;6270272;28;20370;-79
2023/04/28 08:01:05;;;;;;;6.70;5.63;;;12.50;47.10;;;;;;6258711;28;20252;-80
2023/04/28 08:04:10;;;;;;;5.53;5.00;;;12.50;47.90;;;;;;6257929;28;20256;-77
2023/04/28 08:07:14;;;;;;;10.80;5.53;;;12.50;47.50;;;;;;6259316;28;20249;-77
2023/04/28 08:10:17;;;;;;;5.73;5.20;;;12.70;46.80;;;;;;6266643;28;20255;-79
2023/04/28 08:13:20;;;;;;;8.07;5.60;;;12.70;47.40;;;;;;6259856;28;20233;-78
2023/04/28 08:16:23;;;;;;;5.53;5.10;;;12.80;46.70;;;;;;6247983;28;20494;-79
2023/04/28 08:19:28;;;;;;;6.10;5.60;;;12.80;46.80;;;;;;6268530;28;20375;-79
2023/04/28 08:22:31;;;;;;;5.20;4.83;;;13.10;47.30;;;;;;6246383;28;20261;-80
2023/04/28 08:25:34;;;;;;;5.80;5.30;;;13.10;46.50;;;;;;6251697;28;20241;-80
2023/04/28 08:28:38;;;;;;;6.40;5.17;;;13.20;45.90;;;;;;6245533;28;20230;-79
2023/04/28 08:31:41;;;;;;;8.03;5.70;;;13.30;46.10;;;;;;6261318;28;20233;-79
2023/04/28 08:34:45;;;;;;;5.73;5.30;;;13.30;46.60;;;;;;6258557;28;20230;-79
2023/04/28 08:37:48;;;;;;;5.33;4.87;;;13.50;46.10;;;;;;6259355;28;20230;-79
2023/04/28 08:40:51;;;;;;;6.30;5.70;;;13.50;45.70;;;;;;6258396;28;20471;-78
2023/04/28 08:43:55;;;;;;;6.00;5.60;;;13.60;46.40;;;;;;6262314;28;20705;-77
2023/04/28 08:47:01;;;;;;;5.83;5.47;;;13.50;46.20;;;;;;6268287;28;20238;-79
2023/04/28 08:50:07;;;;;;;8.80;5.30;;;13.70;46.10;;;;;;6266900;28;20241;-82
2023/04/28 08:53:13;;;;;;;8.33;5.77;;;13.60;45.70;;;;;;6264155;28;20317;-79
2023/04/28 08:56:17;;;;;;;5.33;4.90;;;13.70;45.50;;;;;;6266089;28;20230;-82
2023/04/28 08:59:21;;;;;;;5.23;4.90;;;13.90;45.50;;;;;;6266456;28;20237;-79
2023/04/28 09:02:24;;;;;;;5.70;5.20;;;14.10;46.90;;;;;;6256170;28;20242;-77
2023/04/28 09:05:29;;;;;;;5.87;5.53;;;14.20;44.90;;;;;;6261471;28;20321;-78
2023/04/28 09:08:32;;;;;;;5.13;4.63;;;14.30;44.70;;;;;;6262919;28;20304;-77
2023/04/28 09:11:48;;;;;;;6.10;5.50;;;14.30;45.00;;;;;;6264712;28;20524;-79
2023/04/28 09:14:58;;;;;;;6.47;5.83;;;14.20;44.90;;;;;;6240822;28;20227;-79
2023/04/28 09:18:01;;;;;;;8.57;5.73;;;14.30;45.50;;;;;;6238953;28;20247;-77
2023/04/28 09:21:08;;;;;;;8.43;6.23;;;14.40;45.90;;;;;;6237534;28;20651;-77
2023/04/28 09:24:11;;;;;;;6.33;5.73;;;14.60;44.70;;;;;;6240098;28;20234;-78
2023/04/28 09:27:14;;;;;;;6.07;5.57;;;14.70;45.00;;;;;;6238950;28;20242;-78
2023/04/28 09:30:19;;;;;;;8.07;5.63;;;14.60;45.20;;;;;;6240491;28;20658;-80
2023/04/28 09:33:22;;;;;;;7.17;6.00;;;14.80;45.00;;;;;;6247026;28;20290;-78
2023/04/28 09:36:30;;;;;;;8.00;6.80;;;14.80;44.90;;;;;;6233116;28;20234;-79
2023/04/28 09:39:33;;;;;;;7.30;6.60;;;14.90;44.40;;;;;;6241176;28;20238;-79
2023/04/28 09:42:38;;;;;;;5.77;5.37;;;14.80;44.00;;;;;;6241573;28;20329;-78
2023/04/28 09:45:41;;;;;;;6.63;6.00;;;14.90;45.00;;;;;;6239165;28;20235;-79
2023/04/28 09:48:46;;;;;;;7.23;6.53;;;15.00;44.70;;;;;;6234601;28;20270;-79
2023/04/28 09:51:50;;;;;;;6.20;5.20;;;15.20;44.50;;;;;;6240181;28;20257;-80
2023/04/28 09:54:55;;;;;;;6.47;5.87;;;15.50;44.60;;;;;;6251438;28;20237;-78
2023/04/28 09:58:05;;;;;;;5.97;5.53;;;15.60;43.80;;;;;;6244380;28;20322;-80
2023/04/28 10:01:11;;;;;;;6.93;6.33;;;15.70;44.20;;;;;;6236423;28;20277;-80
2023/04/28 10:04:15;;;;;;;5.80;5.30;;;15.80;43.60;;;;;;6241701;28;20333;-81
2023/04/28 10:07:21;;;;;;;6.97;5.63;;;16.00;44.00;;;;;;6240961;28;20245;-78
2023/04/28 10:10:26;;;;;;;6.60;6.00;;;16.20;43.70;;;;;;6249233;28;20238;-79
2023/04/28 10:13:31;;;;;;;6.80;5.47;;;16.50;43.20;;;;;;6268330;28;20246;-80
2023/04/28 10:16:34;;;;;;;8.10;5.83;;;16.60;43.60;;;;;;6238856;28;20490;-77
2023/04/28 10:19:37;;;;;;;7.80;5.63;;;16.60;43.40;;;;;;6240639;28;20250;-78
2023/04/28 10:22:56;;;;;;;6.07;5.30;;;16.60;43.50;;;;;;6243094;28;20226;-80
2023/04/28 10:26:01;;;;;;;9.77;6.33;;;16.60;43.80;;;;;;6224986;28;20782;-80
2023/04/28 10:29:04;;;;;;;6.13;5.67;;;16.40;43.00;;;;;;6237162;28;20261;-81
2023/04/28 10:32:18;;;;;;;6.30;5.60;;;16.20;43.50;;;;;;6229601;28;20233;-80
2023/04/28 10:35:41;;;;;;;6.30;5.70;;;16.30;43.20;;;;;;6238681;28;20944;-79
2023/04/28 10:39:11;;;;;;;9.30;6.10;;;16.40;43.30;;;;;;6244856;28;20248;-78
2023/04/28 10:42:51;;;;;;;6.40;5.83;;;16.50;43.40;;;;;;6257288;28;20238;-78
2023/04/28 10:46:07;;;;;;;6.43;5.90;;;16.60;44.10;;;;;;6236403;28;20230;-79
2023/04/28 10:49:10;;;;;;;9.20;6.43;;;16.70;43.20;;;;;;6252366;28;20238;-79
2023/04/28 10:52:52;;;;;;;7.17;5.27;;;16.50;43.40;;;;;;6254428;28;20245;-79
2023/04/28 10:56:08;;;;;;;6.17;5.67;;;16.60;43.30;;;;;;6216053;28;20228;-80
2023/04/28 10:59:28;;;;;;;7.30;5.80;;;16.80;43.60;;;;;;6234585;28;20324;-80
2023/04/28 11:02:40;;;;;;;7.00;5.50;;;17.00;43.70;;;;;;6230437;28;20240;-79
2023/04/28 11:06:20;;;;;;;5.97;5.40;;;17.10;43.20;;;;;;6234702;28;20726;-80
2023/04/28 11:09:48;;;;;;;8.33;6.13;;;17.40;43.40;;;;;;6259972;28;20234;-78
2023/04/28 11:13:25;;;;;;;7.40;5.80;;;17.40;43.20;;;;;;6249800;28;20348;-78
2023/04/28 11:16:30;;;;;;;7.80;5.63;;;17.50;42.90;;;;;;6231153;28;20699;-79
2023/04/28 11:19:36;;;;;;;9.07;5.60;;;17.60;42.50;;;;;;6234138;28;20257;-79
2023/04/28 11:22:40;;;;;;;7.70;5.37;;;17.80;42.70;;;;;;6249337;28;20239;-80
2023/04/28 11:25:55;;;;;;;7.73;6.73;;;18.10;42.70;;;;;;6264860;28;20241;-79
2023/04/28 11:28:58;;;;;;;16.43;6.07;;;18.10;42.80;;;;;;6260539;28;20234;-78
2023/04/28 11:32:04;;;;;;;7.07;5.20;;;18.10;41.80;;;;;;6264544;28;20240;-79
2023/04/28 11:35:08;;;;;;;5.77;5.27;;;18.00;43.00;;;;;;6264827;28;20241;-78
2023/04/28 11:38:11;;;;;;;17.63;5.90;;;18.10;42.60;;;;;;6262007;28;20237;-79
2023/04/28 11:41:15;;;;;;;8.23;6.67;;;18.00;42.70;;;;;;6232956;28;20744;-77
2023/04/28 11:44:20;;;;;;;6.57;5.90;;;18.00;41.90;;;;;;6256481;28;20615;-79
2023/04/28 11:47:33;;;;;;;7.83;6.17;;;17.80;42.40;;;;;;6244344;28;20698;-78
2023/04/28 11:50:36;;;;;;;6.90;5.80;;;17.80;42.90;;;;;;6261814;28;20238;-78
2023/04/28 11:53:43;;;;;;;8.57;5.73;;;17.90;42.20;;;;;;6259401;28;20740;-81
2023/04/28 11:56:46;;;;;;;7.37;6.27;;;18.00;42.40;;;;;;6266418;28;20745;-77
2023/04/28 11:59:50;;;;;;;8.27;6.00;;;18.00;42.60;;;;;;6257427;28;20297;-78
2023/04/28 12:02:54;;;;;;;9.77;6.33;;;18.10;42.50;;;;;;6267019;28;20364;-77
2023/04/28 12:05:58;;;;;;;6.20;5.60;;;18.20;42.00;;;;;;6267739;28;20250;-78
2023/04/28 12:09:04;;;;;;;6.50;6.10;;;18.20;42.00;;;;;;6270918;28;20245;-78
2023/04/28 12:12:09;;;;;;;6.47;5.80;;;18.30;41.90;;;;;;6283473;28;20228;-81
2023/04/28 12:15:12;;;;;;;7.83;5.60;;;18.10;43.00;;;;;;6289578;28;20217;-79
2023/04/28 12:18:18;;;;;;;9.73;6.20;;;18.20;43.00;;;;;;6298217;28;20229;-80
2023/04/28 12:21:22;;;;;;;6.00;5.43;;;18.60;43.00;;;;;;6290643;28;20294;-79
2023/04/28 12:24:27;;;;;;;7.33;6.53;;;18.80;42.20;;;;;;6296898;28;20317;-81
2023/04/28 12:27:31;;;;;;;8.57;6.57;;;18.40;42.90;;;;;;6289215;28;20293;-80
2023/04/28 12:30:37;;;;;;;7.53;6.83;;;18.20;43.00;;;;;;6294749;28;20240;-78
2023/04/28 12:33:42;;;;;;;8.60;7.10;;;18.40;42.70;;;;;;6289370;28;20249;-80
2023/04/28 12:36:45;;;;;;;8.03;7.23;;;18.40;42.50;;;;;;6256403;28;20234;-78
2023/04/28 12:39:48;;;;;;;6.97;6.20;;;18.40;42.90;;;;;;6258496;28;20328;-78
2023/04/28 12:42:51;;;;;;;7.83;6.10;;;18.40;42.70;;;;;;6261626;28;20244;-80
2023/04/28 12:45:55;;;;;;;7.40;6.70;;;18.20;43.10;;;;;;6265534;28;20313;-79
2023/04/28 12:49:00;;;;;;;10.80;6.80;;;18.30;43.00;;;;;;6263539;28;20325;-78
2023/04/28 12:52:05;;;;;;;6.83;6.33;;;18.20;43.20;;;;;;6262191;28;20249;-80
2023/04/28 12:55:09;;;;;;;11.43;6.83;;;18.30;42.70;;;;;;6263878;28;20313;-78
2023/04/28 12:58:12;;;;;;;9.07;5.90;;;18.30;43.00;;;;;;6264331;28;20317;-77
2023/04/28 13:01:15;;;;;;;10.27;6.97;;;18.40;43.10;;;;;;6266004;28;20336;-78
2023/04/28 13:04:21;;;;;;;9.50;6.77;;;18.20;44.00;;;;;;6268266;28;20688;-79
2023/04/28 13:07:25;;;;;;;11.93;6.30;;;18.20;43.30;;;;;;6270186;28;20246;-78
2023/04/28 13:10:28;;;;;;;7.67;6.17;;;18.30;43.10;;;;;;6286289;28;20300;-79
2023/04/28 13:13:34;;;;;;;6.93;6.23;;;18.30;43.00;;;;;;6296999;28;20256;-80
2023/04/28 13:16:37;;;;;;;6.20;5.77;;;18.20;42.90;;;;;;6283989;28;20306;-81
2023/04/28 13:19:42;;;;;;;6.73;5.97;;;18.20;43.70;;;;;;6296318;28;20234;-78
2023/04/28 13:22:46;;;;;;;7.67;6.03;;;18.30;43.60;;;;;;6305452;28;20242;-78
2023/04/28 13:25:49;;;;;;;8.37;7.57;;;18.20;43.70;;;;;;6289321;28;20225;-79
2023/04/28 13:28:54;;;;;;;7.37;6.30;;;18.10;43.40;;;;;;6297255;28;20366;-81
2023/04/28 13:31:57;;;;;;;7.57;6.97;;;18.00;43.80;;;;;;6272781;28;20661;-78
2023/04/28 13:35:04;;;;;;;15.73;5.97;;;18.00;43.70;;;;;;6271861;28;20249;-79
2023/04/28 13:38:07;;;;;;;8.67;6.63;;;17.80;44.50;;;;;;6240560;28;20238;-79
2023/04/28 13:41:10;;;;;;;12.67;7.23;;;17.80;44.40;;;;;;6240547;28;20238;-79
2023/04/28 13:44:13;;;;;;;6.23;5.77;;;17.70;44.20;;;;;;6241928;28;20246;-77
2023/04/28 13:47:16;;;;;;;8.07;7.23;;;17.70;44.90;;;;;;6236173;28;20243;-79
2023/04/28 13:50:21;;;;;;;8.23;7.43;;;17.80;45.00;;;;;;6239863;28;20624;-78
2023/04/28 13:53:24;;;;;;;7.87;6.67;;;17.50;45.80;;;;;;6233305;28;20231;-78
2023/04/28 13:56:27;;;;;;;9.73;7.43;;;17.20;45.90;;;;;;6231539;28;20242;-78
2023/04/28 13:59:31;;;;;;;13.00;7.57;;;17.10;46.50;;;;;;6239564;28;20238;-78
2023/04/28 14:02:34;;;;;;;10.53;7.23;;;16.80;47.90;;;;;;6239747;28;20341;-78
2023/04/28 14:05:40;;;;;;;7.90;7.13;;;16.60;48.40;;;;;;6238418;28;20241;-81
2023/04/28 14:08:53;;;;;;;8.13;7.30;;;16.40;48.40;;;;;;6237569;28;20238;-78
2023/04/28 14:11:57;;;;;;;9.43;7.57;;;16.40;48.20;;;;;;6239219;28;20294;-81
2023/04/28 14:15:00;;;;;;;8.83;7.93;;;16.40;49.10;;;;;;6238192;28;20272;-78
2023/04/28 14:18:03;;;;;;;10.23;8.23;;;16.10;49.30;;;;;;6229331;28;20256;-80
2023/04/28 14:21:08;;;;;;;8.20;7.43;;;16.10;49.80;;;;;;6226231;28;20320;-79
2023/04/28 14:24:11;;;;;;;10.13;6.60;;;16.00;49.10;;;;;;6224583;28;20262;-77
2023/04/28 14:27:15;;;;;;;7.77;6.97;;;16.00;49.30;;;;;;6249797;28;20696;-79
2023/04/28 14:30:19;;;;;;;7.37;6.70;;;16.00;49.60;;;;;;6252816;28;20248;-78
2023/04/28 14:33:22;;;;;;;9.40;7.40;;;15.80;50.00;;;;;;6228159;28;20282;-77
2023/04/28 14:36:27;;;;;;;9.10;7.10;;;15.80;50.40;;;;;;6244243;28;20251;-79
2023/04/28 14:39:30;;;;;;;8.53;6.37;;;15.80;50.60;;;;;;6253977;28;20238;-79
2023/04/28 14:42:35;;;;;;;6.20;5.53;;;15.80;50.50;;;;;;6260344;28;20250;-79
2023/04/28 14:45:38;;;;;;;7.40;6.07;;;15.80;50.20;;;;;;6251389;28;20229;-80
2023/04/28 14:48:41;;;;;;;6.20;5.50;;;15.70;50.40;;;;;;6251507;28;20990;-79
2023/04/28 14:51:46;;;;;;;7.73;7.00;;;15.60;50.80;;;;;;6257565;28;20242;-79
2023/04/28 14:54:49;;;;;;;7.43;6.10;;;15.60;50.50;;;;;;6255622;28;20744;-80
2023/04/28 14:57:53;;;;;;;7.53;6.33;;;15.50;50.90;;;;;;6261752;28;20242;-79
2023/04/28 15:00:56;;;;;;;13.83;6.60;;;15.50;50.70;;;;;;6260391;28;20971;-77
2023/04/28 15:03:59;;;;;;;8.13;7.33;;;15.40;50.60;;;;;;6261876;28;20235;-77
2023/04/28 15:07:07;;;;;;;7.10;6.37;;;15.40;50.40;;;;;;6260244;28;20579;-80
2023/04/28 15:10:10;;;;;;;8.00;7.20;;;15.30;51.50;;;;;;6259757;28;20256;-78
2023/04/28 15:13:13;;;;;;;9.07;7.83;;;15.30;51.30;;;;;;6261990;28;20244;-79
2023/04/28 15:16:16;;;;;;;20.67;9.93;;;15.30;51.10;;;;;;6254013;28;20246;-78
2023/04/28 15:19:19;;;;;;;9.67;8.67;;;15.40;51.00;;;;;;6251743;28;20718;-77
2023/04/28 15:22:24;;;;;;;8.27;6.93;;;15.50;51.30;;;;;;6254159;28;20242;-77
2023/04/28 15:25:27;;;;;;;7.70;7.00;;;15.60;51.10;;;;;;6263296;28;20300;-78
2023/04/28 15:28:30;;;;;;;6.63;5.77;;;15.60;50.70;;;;;;6246116;28;20238;-80
2023/04/28 15:31:33;;;;;;;7.63;6.77;;;15.60;50.70;;;;;;6227844;28;20245;-78
2023/04/28 15:34:37;;;;;;;7.27;6.57;;;15.60;50.40;;;;;;6235432;28;20614;-78
2023/04/28 15:37:43;;;;;;;8.70;6.80;;;15.60;50.10;;;;;;6250008;28;20226;-80
2023/04/28 15:40:46;;;;;;;10.57;6.97;;;15.50;50.50;;;;;;6260110;28;20238;-79
2023/04/28 15:43:49;;;;;;;10.17;7.87;;;15.40;51.50;;;;;;6257765;28;20229;-78
2023/04/28 15:46:53;;;;;;;11.87;8.57;;;15.30;51.40;;;;;;6250360;28;20234;-79
2023/04/28 15:49:57;;;;;;;8.37;7.53;;;15.10;51.50;;;;;;6256696;28;20230;-77
2023/04/28 15:53:02;;;;;;;7.93;7.20;;;15.00;52.20;;;;;;6252067;28;20357;-78
2023/04/28 15:56:05;;;;;;;9.30;8.37;;;14.90;52.70;;;;;;6259641;28;20241;-78
2023/04/28 15:59:13;;;;;;;15.27;10.20;;;14.90;53.40;;;;;;6253145;28;20238;-80
2023/04/28 16:02:16;;;;;;;10.00;9.17;;;14.90;55.50;;;;;;6256662;28;20635;-79
2023/04/28 16:05:20;;;;;;;11.67;9.57;;;14.90;55.80;;;;;;6263714;28;21560;-77
2023/04/28 16:08:25;;;;;;;17.23;11.03;;;14.80;56.30;;;;;;6256401;28;20250;-79